createdAt,value
2018-07-15T00:00:25.121Z,95738.33
2018-07-15T00:02:54.185Z,95742.47
2018-07-15T00:05:23.313Z,95741.56
2018-07-15T00:07:52.609Z,95745.80
2018-07-15T00:10:21.701Z,95749.12
2018-07-15T00:12:50.765Z,95743.04
2018-07-15T00:15:19.889Z,95734.92
2018-07-15T00:17:48.953Z,95735.84
2018-07-15T00:20:18.061Z,95742.88
2018-07-15T00:22:47.713Z,95734.13
2018-07-15T00:25:16.764Z,95737.45
2018-07-15T00:27:45.829Z,95740.03
2018-07-15T00:30:14.973Z,95744.67
2018-07-15T00:32:44.043Z,95735.98
2018-07-15T00:35:13.356Z,95744.36
2018-07-15T00:37:42.405Z,95740.37
2018-07-15T00:40:11.472Z,95740.70
2018-07-15T00:42:40.524Z,95733.23
2018-07-15T00:45:09.666Z,95732.36
2018-07-15T00:47:38.738Z,95737.00
2018-07-15T00:50:07.860Z,95737.41
2018-07-15T00:52:36.944Z,95735.94
2018-07-15T00:55:06.308Z,95731.23
2018-07-15T00:57:35.414Z,95731.55
2018-07-15T01:00:05.072Z,95732.45
2018-07-15T01:02:34.544Z,95734.09
2018-07-15T01:05:03.609Z,95736.41
2018-07-15T01:07:32.962Z,95736.50
2018-07-15T01:10:02.188Z,95729.80
2018-07-15T01:12:31.414Z,95734.50
2018-07-15T01:15:00.469Z,95730.92
2018-07-15T01:17:29.606Z,95727.35
2018-07-15T01:19:58.693Z,95721.17
2018-07-15T01:22:27.772Z,95721.52
2018-07-15T01:24:57.120Z,95730.42
2018-07-15T01:27:26.216Z,95732.30
2018-07-15T01:29:55.285Z,95730.11
2018-07-15T01:32:24.374Z,95729.64
2018-07-15T01:34:53.440Z,95721.93
2018-07-15T01:37:22.676Z,95722.91
2018-07-15T01:39:51.757Z,95720.08
2018-07-15T01:42:21.171Z,95717.07
2018-07-15T01:44:50.426Z,95717.07
2018-07-15T01:47:19.626Z,95718.11
2018-07-15T01:49:48.754Z,95721.08
2018-07-15T01:52:17.801Z,95719.48
2018-07-15T01:54:46.901Z,95723.78
2018-07-15T01:57:16.006Z,95723.88
2018-07-15T01:59:45.169Z,95727.60
2018-07-15T02:02:14.221Z,95717.70
2018-07-15T02:04:43.298Z,95719.58
2018-07-15T02:07:12.420Z,95715.70
2018-07-15T02:09:41.489Z,95713.81
2018-07-15T02:12:10.552Z,95712.94
2018-07-15T02:14:39.621Z,95711.63
2018-07-15T02:17:08.706Z,95707.08
2018-07-15T02:19:38.058Z,95709.84
2018-07-15T02:22:07.126Z,95708.70
2018-07-15T02:24:36.308Z,95703.50
2018-07-15T02:27:05.389Z,95702.02
2018-07-15T02:29:34.461Z,95709.33
2018-07-15T02:32:03.532Z,95708.11
2018-07-15T02:34:32.717Z,95706.41
2018-07-15T02:37:02.748Z,95700.49
2018-07-15T02:39:32.000Z,95700.91
2018-07-15T02:42:01.062Z,95709.59
2018-07-15T02:44:30.168Z,95703.75
2018-07-15T02:46:59.226Z,95708.36
2018-07-15T02:49:28.365Z,95706.92
2018-07-15T02:51:57.468Z,95710.65
2018-07-15T02:54:26.522Z,95704.16
2018-07-15T02:56:55.607Z,95709.68
2018-07-15T02:59:24.785Z,95711.31
2018-07-15T03:01:53.873Z,95714.62
2018-07-15T03:04:23.026Z,95714.00
2018-07-15T03:06:52.132Z,95711.97
2018-07-15T03:09:21.261Z,95709.87
2018-07-15T03:11:50.521Z,95714.41
2018-07-15T03:14:19.633Z,95718.05
2018-07-15T03:16:48.706Z,95714.23
2018-07-15T03:19:17.833Z,95713.92
2018-07-15T03:21:46.921Z,95715.47
2018-07-15T03:24:15.973Z,95715.21
2018-07-15T03:26:45.069Z,95716.03
2018-07-15T03:29:14.246Z,95717.31
2018-07-15T03:31:43.321Z,95713.78
2018-07-15T03:34:12.526Z,95719.91
2018-07-15T03:36:41.601Z,95711.08
2018-07-15T03:39:10.976Z,95712.08
2018-07-15T03:41:40.049Z,95714.66
2018-07-15T03:44:09.105Z,95723.26
2018-07-15T03:46:38.201Z,95724.30
2018-07-15T03:49:07.252Z,95719.59
2018-07-15T03:51:36.372Z,95720.41
2018-07-15T03:54:05.452Z,95715.78
2018-07-15T03:56:34.592Z,95719.75
2018-07-15T03:59:03.751Z,95722.03
2018-07-15T04:01:32.804Z,95727.55
2018-07-15T04:04:01.868Z,95726.64
2018-07-15T04:06:30.916Z,95723.80
2018-07-15T04:09:00.109Z,95720.64
2018-07-15T04:11:29.070Z,95719.11
2018-07-15T04:13:58.195Z,95715.10
2018-07-15T04:16:27.261Z,95719.73
2018-07-15T04:18:56.341Z,95716.73
2018-07-15T04:21:25.408Z,95722.55
2018-07-15T04:23:54.514Z,95722.09
2018-07-15T04:26:23.653Z,95713.41
2018-07-15T04:28:53.011Z,95717.77
2018-07-15T04:31:22.049Z,95719.39
2018-07-15T04:33:51.119Z,95719.55
2018-07-15T04:36:20.185Z,95723.12
2018-07-15T04:38:49.298Z,95722.80
2018-07-15T04:41:18.362Z,95731.08
2018-07-15T04:43:47.564Z,95731.64
2018-07-15T04:46:16.545Z,95736.91
2018-07-15T04:48:45.609Z,95742.67
2018-07-15T04:51:14.681Z,95738.78
2018-07-15T04:53:43.861Z,95731.64
2018-07-15T04:56:12.941Z,95737.88
2018-07-15T04:58:42.046Z,95740.32
2018-07-15T05:01:11.148Z,95735.27
2018-07-15T05:03:40.202Z,95731.23
2018-07-15T05:06:09.344Z,95739.66
2018-07-15T05:08:38.394Z,95735.84
2018-07-15T05:11:07.580Z,95741.59
2018-07-15T05:13:36.701Z,95743.14
2018-07-15T05:16:05.798Z,95741.04
2018-07-15T05:18:34.864Z,95739.82
2018-07-15T05:21:04.012Z,95739.82
2018-07-15T05:23:33.058Z,95740.38
2018-07-15T05:26:02.194Z,95737.22
2018-07-15T05:28:31.253Z,95742.88
2018-07-15T05:31:00.346Z,95745.61
2018-07-15T05:33:30.485Z,95749.23
2018-07-15T05:35:59.566Z,95746.88
2018-07-15T05:38:28.657Z,95752.61
2018-07-15T05:40:57.765Z,95745.55
2018-07-15T05:43:26.893Z,95748.42
2018-07-15T05:45:55.949Z,95752.48
2018-07-15T05:48:26.157Z,95748.67
2018-07-15T05:50:57.338Z,95745.95
2018-07-15T05:53:26.445Z,95749.91
2018-07-15T05:55:55.497Z,95752.81
2018-07-15T05:58:24.689Z,95754.22
2018-07-15T06:00:53.774Z,95751.58
2018-07-15T06:03:22.925Z,95751.83
2018-07-15T06:05:51.956Z,95762.78
2018-07-15T06:08:21.093Z,95770.75
2018-07-15T06:10:50.232Z,95771.53
2018-07-15T06:13:19.270Z,95770.66
2018-07-15T06:15:48.305Z,95787.48
2018-07-15T06:18:17.461Z,95787.36
2018-07-15T06:20:46.509Z,95787.77
2018-07-15T06:23:15.595Z,95783.05
2018-07-15T06:25:44.723Z,95785.02
2018-07-15T06:28:13.780Z,95789.40
2018-07-15T06:30:42.848Z,95792.55
2018-07-15T06:33:11.937Z,95783.13
2018-07-15T06:35:41.028Z,95782.03
2018-07-15T06:38:10.304Z,95786.19
2018-07-15T06:40:39.436Z,95781.35
2018-07-15T06:43:08.536Z,95785.05
2018-07-15T06:45:37.660Z,95784.61
2018-07-15T06:48:06.868Z,95780.22
2018-07-15T06:50:36.189Z,95782.09
2018-07-15T06:53:05.300Z,95783.47
2018-07-15T06:55:34.456Z,95783.59
2018-07-15T06:58:04.266Z,95788.47
2018-07-15T07:00:33.382Z,95787.87
2018-07-15T07:03:02.526Z,95791.81
2018-07-15T07:05:31.994Z,95789.61
2018-07-15T07:08:01.262Z,95791.52
2018-07-15T07:10:30.360Z,95796.03
2018-07-15T07:12:59.427Z,95781.47
2018-07-15T07:15:28.510Z,95782.86
2018-07-15T07:17:57.582Z,95787.23
2018-07-15T07:20:26.757Z,95791.16
2018-07-15T07:22:55.815Z,95783.91
2018-07-15T07:25:24.930Z,95780.32
2018-07-15T07:27:54.185Z,95781.47
2018-07-15T07:30:23.269Z,95777.84
2018-07-15T07:32:52.455Z,95779.84
2018-07-15T07:35:21.648Z,95774.52
2018-07-15T07:37:50.670Z,95777.95
2018-07-15T07:40:19.797Z,95771.48
2018-07-15T07:42:48.865Z,95768.22
2018-07-15T07:45:18.013Z,95763.83
2018-07-15T07:47:47.081Z,95766.59
2018-07-15T07:50:16.216Z,95772.25
2018-07-15T07:52:45.304Z,95774.97
2018-07-15T07:55:14.352Z,95772.53
2018-07-15T07:57:43.484Z,95777.58
2018-07-15T08:00:12.578Z,95773.88
2018-07-15T08:02:41.755Z,95772.45
2018-07-15T08:05:10.880Z,95767.81
2018-07-15T08:07:39.963Z,95774.23
2018-07-15T08:10:09.062Z,95776.72
2018-07-15T08:12:38.121Z,95779.80
2018-07-15T08:15:07.222Z,95769.07
2018-07-15T08:17:36.295Z,95771.97
2018-07-15T08:20:05.507Z,95772.31
2018-07-15T08:22:34.851Z,95767.69
2018-07-15T08:25:04.910Z,95771.33
2018-07-15T08:27:34.558Z,95770.72
2018-07-15T08:30:14.933Z,95771.47
2018-07-15T08:32:44.209Z,95770.17
2018-07-15T08:35:13.265Z,95763.31
2018-07-15T08:37:42.457Z,95765.28
2018-07-15T08:40:11.586Z,95763.41
2018-07-15T08:42:40.665Z,95764.02
2018-07-15T08:45:09.773Z,95758.02
2018-07-15T08:47:38.925Z,95753.84
2018-07-15T08:50:08.201Z,95751.88
2018-07-15T08:52:37.334Z,95750.17
2018-07-15T08:55:06.478Z,95753.47
2018-07-15T08:57:35.745Z,95750.83
2018-07-15T09:00:04.853Z,95755.69
2018-07-15T09:02:33.934Z,95752.27
2018-07-15T09:05:02.995Z,95753.19
2018-07-15T09:07:32.065Z,95750.39
2018-07-15T09:10:01.135Z,95748.07
2018-07-15T09:12:30.195Z,95748.30
2018-07-15T09:14:59.297Z,95755.48
2018-07-15T09:17:28.482Z,95752.35
2018-07-15T09:19:57.818Z,95752.70
2018-07-15T09:22:26.896Z,95751.35
2018-07-15T09:24:56.064Z,95742.81
2018-07-15T09:27:25.128Z,95741.36
2018-07-15T09:29:54.256Z,95735.08
2018-07-15T09:32:23.446Z,95735.13
2018-07-15T09:34:52.546Z,95738.75
2018-07-15T09:37:21.740Z,95735.30
2018-07-15T09:39:50.812Z,95736.02
2018-07-15T09:42:19.901Z,95734.77
2018-07-15T09:44:48.981Z,95734.41
2018-07-15T09:47:18.071Z,95732.72
2018-07-15T09:49:47.148Z,95723.48
2018-07-15T09:52:16.315Z,95717.44
2018-07-15T09:54:45.509Z,95719.13
2018-07-15T09:57:14.738Z,95717.85
2018-07-15T09:59:43.848Z,95719.70
2018-07-15T10:02:12.922Z,95708.28
2018-07-15T10:04:42.045Z,95716.13
2018-07-15T10:07:11.114Z,95712.52
2018-07-15T10:09:40.185Z,95713.56
2018-07-15T10:12:09.358Z,95707.81
2018-07-15T10:14:38.480Z,95708.95
2018-07-15T10:17:07.679Z,95706.72
2018-07-15T10:19:36.725Z,95698.98
2018-07-15T10:22:05.878Z,95704.80
2018-07-15T10:24:34.983Z,95699.63
2018-07-15T10:27:04.125Z,95693.28
2018-07-15T10:29:33.157Z,95702.03
2018-07-15T10:32:02.230Z,95700.00
2018-07-15T10:34:31.338Z,95693.84
2018-07-15T10:37:00.589Z,95693.73
2018-07-15T10:39:29.734Z,95686.20
2018-07-15T10:41:58.761Z,95688.13
2018-07-15T10:44:27.947Z,95685.55
2018-07-15T10:46:57.012Z,95673.95
2018-07-15T10:49:26.202Z,95661.68
2018-07-15T10:51:55.301Z,95668.48
2018-07-15T10:54:25.393Z,95674.33
2018-07-15T10:56:54.542Z,95675.00
2018-07-15T10:59:23.633Z,95668.46
2018-07-15T11:01:52.723Z,95660.72
2018-07-15T11:04:21.849Z,95649.43
2018-07-15T11:06:50.997Z,95653.27
2018-07-15T11:09:20.073Z,95650.97
2018-07-15T11:11:49.201Z,95645.06
2018-07-15T11:14:18.446Z,95645.72
2018-07-15T11:16:47.541Z,95636.61
2018-07-15T11:19:16.813Z,95628.53
2018-07-15T11:21:45.887Z,95634.27
2018-07-15T11:24:14.992Z,95626.94
2018-07-15T11:26:44.128Z,95622.05
2018-07-15T11:29:13.190Z,95614.06
2018-07-15T11:31:42.382Z,95618.97
2018-07-15T11:34:11.456Z,95620.11
2018-07-15T11:36:40.767Z,95617.28
2018-07-15T11:39:10.367Z,95614.05
2018-07-15T11:41:39.318Z,95606.19
2018-07-15T11:44:08.778Z,95605.36
2018-07-15T11:46:37.981Z,95603.83
2018-07-15T11:49:07.077Z,95600.47
2018-07-15T11:51:36.265Z,95600.98
2018-07-15T11:54:05.295Z,95597.94
2018-07-15T11:56:34.368Z,95596.58
2018-07-15T11:59:03.496Z,95594.81
2018-07-15T12:01:32.699Z,95590.50
2018-07-15T12:04:01.734Z,95586.88
2018-07-15T12:06:30.949Z,95583.05
2018-07-15T12:09:00.146Z,95583.24
2018-07-15T12:11:29.348Z,95576.04
2018-07-15T12:13:58.698Z,95575.23
2018-07-15T12:16:27.790Z,95578.63
2018-07-15T12:18:56.936Z,95569.02
2018-07-15T12:21:25.994Z,95577.44
2018-07-15T12:23:55.200Z,95564.99
2018-07-15T12:26:24.284Z,95568.36
2018-07-15T12:28:53.393Z,95574.42
2018-07-15T12:31:22.501Z,95573.25
2018-07-15T12:33:51.736Z,95570.53
2018-07-15T12:36:20.921Z,95575.77
2018-07-15T12:38:50.101Z,95580.83
2018-07-15T12:41:19.289Z,95569.36
2018-07-15T12:43:48.381Z,95574.09
2018-07-15T12:46:17.457Z,95567.58
2018-07-15T12:48:46.648Z,95565.92
2018-07-15T12:51:15.737Z,95568.16
2018-07-15T12:53:44.808Z,95558.09
2018-07-15T12:56:14.089Z,95563.01
2018-07-15T12:58:43.348Z,95556.87
2018-07-15T13:01:12.529Z,95551.95
2018-07-15T13:03:41.815Z,95546.58
2018-07-15T13:06:11.425Z,95540.55
2018-07-15T13:08:40.581Z,95535.33
2018-07-15T13:11:09.719Z,95533.54
2018-07-15T13:13:38.857Z,95533.33
2018-07-15T13:16:08.073Z,95532.14
2018-07-15T13:18:37.359Z,95525.34
2018-07-15T13:21:06.872Z,95526.31
2018-07-15T13:23:36.005Z,95523.07
2018-07-15T13:26:05.096Z,95528.44
2018-07-15T13:28:34.310Z,95532.83
2018-07-15T13:31:03.552Z,95528.45
2018-07-15T13:33:32.700Z,95528.77
2018-07-15T13:36:01.970Z,95538.73
2018-07-15T13:38:31.152Z,95539.62
2018-07-15T13:41:00.214Z,95539.77
2018-07-15T13:43:30.666Z,95541.34
2018-07-15T13:45:59.742Z,95539.93
2018-07-15T13:48:28.865Z,95545.73
2018-07-15T13:50:58.042Z,95551.08
2018-07-15T13:53:27.084Z,95545.55
2018-07-15T13:55:57.164Z,95543.42
2018-07-15T13:58:26.306Z,95539.05
2018-07-15T14:00:55.371Z,95535.45
2018-07-15T14:03:24.446Z,95537.48
2018-07-15T14:05:53.526Z,95537.03
2018-07-15T14:08:22.637Z,95537.61
2018-07-15T14:10:52.006Z,95537.97
2018-07-15T14:13:21.195Z,95530.93
2018-07-15T14:15:50.467Z,95536.85
2018-07-15T14:18:19.757Z,95552.56
2018-07-15T14:20:49.066Z,95565.80
2018-07-15T14:23:18.389Z,95593.09
2018-07-15T14:25:47.589Z,95563.09
2018-07-15T14:28:17.005Z,95572.58
2018-07-15T14:30:46.137Z,95577.03
2018-07-15T14:33:15.243Z,95590.91
2018-07-15T14:35:44.479Z,95607.33
2018-07-15T14:38:13.817Z,95633.94
2018-07-15T14:40:44.022Z,95639.28
2018-07-15T14:43:13.146Z,95645.37
2018-07-15T14:45:44.854Z,95658.35
2018-07-15T14:48:14.023Z,95658.13
2018-07-15T14:50:43.966Z,95666.61
2018-07-15T14:53:13.142Z,95672.33
2018-07-15T14:55:43.422Z,95670.71
2018-07-15T14:58:12.560Z,95680.48
2018-07-15T15:00:41.770Z,95689.55
2018-07-15T15:03:10.900Z,95693.64
2018-07-15T15:05:40.020Z,95705.51
2018-07-15T15:08:09.210Z,95711.58
2018-07-15T15:10:38.504Z,95714.97
2018-07-15T15:13:07.694Z,95715.70
2018-07-15T15:15:36.856Z,95717.22
2018-07-15T15:18:06.165Z,95714.90
2018-07-15T15:20:35.378Z,95724.11
2018-07-15T15:23:04.621Z,95716.06
2018-07-15T15:25:33.864Z,95714.63
2018-07-15T15:28:03.142Z,95710.37
2018-07-15T15:30:32.318Z,95711.77
2018-07-15T15:33:01.669Z,95703.95
2018-07-15T15:35:30.905Z,95705.05
2018-07-15T15:38:00.094Z,95707.90
2018-07-15T15:40:29.261Z,95702.56
2018-07-15T15:42:58.444Z,95686.88
2018-07-15T15:45:27.623Z,95680.00
2018-07-15T15:47:56.738Z,95675.83
2018-07-15T15:50:25.937Z,95667.33
2018-07-15T15:52:55.269Z,95650.27
2018-07-15T15:55:25.355Z,95619.47
2018-07-15T15:57:54.473Z,95592.73
2018-07-15T16:00:23.759Z,95583.61
2018-07-15T16:02:52.809Z,95586.20
2018-07-15T16:05:21.900Z,95595.18
2018-07-15T16:07:51.145Z,95597.23
2018-07-15T16:10:20.227Z,95599.82
2018-07-15T16:12:49.333Z,95610.31
2018-07-15T16:15:18.493Z,95618.00
2018-07-15T16:17:47.677Z,95620.63
2018-07-15T16:20:16.820Z,95613.27
2018-07-15T16:22:46.151Z,95627.15
2018-07-15T16:25:15.205Z,95636.16
2018-07-15T16:27:44.248Z,95641.58
2018-07-15T16:30:13.763Z,95636.98
2018-07-15T16:32:42.780Z,95639.98
2018-07-15T16:35:11.962Z,95628.53
2018-07-15T16:37:41.074Z,95621.34
2018-07-15T16:40:10.134Z,95621.14
2018-07-15T16:42:39.227Z,95618.32
2018-07-15T16:45:08.537Z,95612.72
2018-07-15T16:47:37.614Z,95617.92
2018-07-15T16:50:07.162Z,95606.48
2018-07-15T16:52:36.195Z,95610.87
2018-07-15T16:55:05.301Z,95595.48
2018-07-15T16:57:34.539Z,95598.15
2018-07-15T17:00:04.158Z,95600.64
2018-07-15T17:02:33.224Z,95592.62
2018-07-15T17:05:02.430Z,95590.98
2018-07-15T17:07:31.629Z,95589.20
2018-07-15T17:10:00.821Z,95587.13
2018-07-15T17:12:30.166Z,95575.09
2018-07-15T17:14:59.629Z,95577.97
2018-07-15T17:17:28.921Z,95575.06
2018-07-15T17:19:57.946Z,95572.54
2018-07-15T17:22:27.101Z,95574.92
2018-07-15T17:24:56.161Z,95574.31
2018-07-15T17:27:25.528Z,95571.47
2018-07-15T17:29:54.609Z,95566.78
2018-07-15T17:32:23.707Z,95572.53
2018-07-15T17:34:52.812Z,95569.97
2018-07-15T17:37:21.896Z,95567.63
2018-07-15T17:39:51.008Z,95568.97
2018-07-15T17:42:20.126Z,95580.12
2018-07-15T17:44:49.140Z,95580.11
2018-07-15T17:47:18.240Z,95579.24
2018-07-15T17:49:47.382Z,95576.20
2018-07-15T17:52:16.556Z,95580.56
2018-07-15T17:54:45.654Z,95586.91
2018-07-15T17:57:14.946Z,95579.05
2018-07-15T17:59:44.007Z,95582.22
2018-07-15T18:02:13.124Z,95584.48
2018-07-15T18:04:42.268Z,95577.64
2018-07-15T18:07:11.320Z,95581.82
2018-07-15T18:09:40.485Z,95575.94
2018-07-15T18:12:09.627Z,95580.20
2018-07-15T18:14:38.685Z,95581.07
2018-07-15T18:17:07.756Z,95589.07
2018-07-15T18:19:36.915Z,95597.81
2018-07-15T18:22:06.198Z,95606.25
2018-07-15T18:24:35.619Z,95599.25
2018-07-15T18:27:04.965Z,95596.07
2018-07-15T18:29:34.090Z,95590.28
2018-07-15T18:32:03.259Z,95606.86
2018-07-15T18:34:32.326Z,95601.03
2018-07-15T18:37:01.476Z,95607.47
2018-07-15T18:39:30.561Z,95612.58
2018-07-15T18:41:59.681Z,95613.67
2018-07-15T18:44:28.985Z,95624.98
2018-07-15T18:46:58.122Z,95619.52
2018-07-15T18:49:27.146Z,95629.61
2018-07-15T18:51:56.272Z,95627.95
2018-07-15T18:54:25.398Z,95636.56
2018-07-15T18:56:54.520Z,95636.80
2018-07-15T18:59:23.771Z,95637.98
2018-07-15T19:01:52.913Z,95644.31
2018-07-15T19:04:22.009Z,95653.82
2018-07-15T19:06:51.130Z,95655.34
2018-07-15T19:09:20.224Z,95655.11
2018-07-15T19:11:49.310Z,95657.34
2018-07-15T19:14:18.464Z,95664.53
2018-07-15T19:16:47.606Z,95662.09
2018-07-15T19:19:16.701Z,95666.94
2018-07-15T19:21:45.838Z,95659.56
2018-07-15T19:24:14.938Z,95653.23
2018-07-15T19:26:44.060Z,95652.78
2018-07-15T19:29:13.125Z,95658.66
2018-07-15T19:31:42.406Z,95664.58
2018-07-15T19:34:11.430Z,95659.50
2018-07-15T19:36:41.638Z,95658.37
2018-07-15T19:39:10.855Z,95654.09
2018-07-15T19:41:39.849Z,95660.19
2018-07-15T19:44:08.933Z,95654.91
2018-07-15T19:46:38.081Z,95650.52
2018-07-15T19:49:07.193Z,95649.13
2018-07-15T19:51:36.410Z,95647.06
2018-07-15T19:54:05.505Z,95639.78
2018-07-15T19:56:34.689Z,95641.98
2018-07-15T19:59:03.832Z,95640.36
2018-07-15T20:01:32.945Z,95640.37
2018-07-15T20:04:02.137Z,95630.33
2018-07-15T20:06:31.201Z,95633.89
2018-07-15T20:09:00.321Z,95627.67
2018-07-15T20:11:29.465Z,95626.28
2018-07-15T20:13:58.549Z,95625.03
2018-07-15T20:16:27.611Z,95618.91
2018-07-15T20:18:56.739Z,95619.83
2018-07-15T20:21:25.817Z,95617.50
2018-07-15T20:23:54.889Z,95614.76
2018-07-15T20:26:24.147Z,95615.90
2018-07-15T20:28:54.264Z,95608.17
2018-07-15T20:31:23.329Z,95605.28
2018-07-15T20:33:52.465Z,95601.71
2018-07-15T20:36:21.473Z,95599.84
2018-07-15T20:38:50.613Z,95595.94
2018-07-15T20:41:19.678Z,95595.31
2018-07-15T20:43:48.761Z,95595.77
2018-07-15T20:46:17.823Z,95596.20
2018-07-15T20:48:46.893Z,95598.73
2018-07-15T20:51:15.934Z,95589.38
2018-07-15T20:53:45.044Z,95588.11
2018-07-15T20:56:14.166Z,95593.16
2018-07-15T20:58:43.324Z,95592.34
2018-07-15T21:01:12.446Z,95594.41
2018-07-15T21:03:41.572Z,95595.91
2018-07-15T21:06:10.726Z,95597.04
2018-07-15T21:08:39.822Z,95595.98
2018-07-15T21:11:08.980Z,95595.16
2018-07-15T21:13:38.073Z,95588.69
2018-07-15T21:16:07.298Z,95592.82
2018-07-15T21:18:36.407Z,95583.84
2018-07-15T21:21:05.603Z,95574.62
2018-07-15T21:23:34.754Z,95586.84
2018-07-15T21:26:03.833Z,95575.56
2018-07-15T21:28:33.146Z,95576.94
2018-07-15T21:31:02.285Z,95577.20
2018-07-15T21:33:31.372Z,95578.77
2018-07-15T21:36:00.445Z,95575.91
2018-07-15T21:38:29.529Z,95578.55
2018-07-15T21:40:58.705Z,95582.88
2018-07-15T21:43:27.789Z,95583.22
2018-07-15T21:45:56.986Z,95585.30
2018-07-15T21:48:26.069Z,95581.05
2018-07-15T21:50:55.152Z,95579.95
2018-07-15T21:53:24.214Z,95589.88
2018-07-15T21:55:53.374Z,95587.31
2018-07-15T21:58:22.422Z,95585.90
2018-07-15T22:00:51.576Z,95588.17
2018-07-15T22:03:20.624Z,95600.11
2018-07-15T22:05:50.148Z,95596.40
2018-07-15T22:08:30.607Z,95610.67
2018-07-15T22:10:59.661Z,95604.67
2018-07-15T22:13:28.826Z,95610.28
2018-07-15T22:15:57.869Z,95608.59
2018-07-15T22:18:27.029Z,95616.42
2018-07-15T22:20:56.097Z,95613.16
2018-07-15T22:23:25.177Z,95613.88
2018-07-15T22:25:54.285Z,95614.41
2018-07-15T22:28:23.361Z,95609.91
2018-07-15T22:30:52.393Z,95612.81
2018-07-15T22:33:21.481Z,95609.73
2018-07-15T22:35:50.553Z,95607.12
2018-07-15T22:38:19.633Z,95604.44
2018-07-15T22:40:48.703Z,95604.25
2018-07-15T22:43:17.779Z,95611.84
2018-07-15T22:45:46.979Z,95616.80
2018-07-15T22:48:16.041Z,95620.45
2018-07-15T22:50:45.567Z,95619.94
2018-07-15T22:53:14.675Z,95623.55
2018-07-15T22:55:43.722Z,95619.59
2018-07-15T22:58:12.837Z,95619.10
2018-07-15T23:00:42.006Z,95617.34
2018-07-15T23:03:11.076Z,95614.75
2018-07-15T23:05:55.625Z,95620.52
2018-07-15T23:08:25.612Z,95625.37
2018-07-15T23:10:54.766Z,95623.23
2018-07-15T23:13:23.825Z,95622.59
2018-07-15T23:15:53.239Z,95625.21
2018-07-15T23:18:22.875Z,95618.59
2018-07-15T23:20:52.297Z,95620.91
2018-07-15T23:23:21.365Z,95628.09
2018-07-15T23:25:50.478Z,95630.74
2018-07-15T23:28:19.630Z,95630.47
2018-07-15T23:30:48.768Z,95623.53
2018-07-15T23:33:17.826Z,95623.24
2018-07-15T23:35:46.992Z,95632.70
2018-07-15T23:38:16.068Z,95631.52
2018-07-15T23:40:45.140Z,95636.19
2018-07-15T23:43:14.212Z,95621.32
2018-07-15T23:45:43.362Z,95628.57
2018-07-15T23:48:12.409Z,95631.78
2018-07-15T23:50:41.580Z,95635.46
2018-07-15T23:53:10.613Z,95627.06
2018-07-15T23:55:39.761Z,95624.72
2018-07-15T23:58:08.923Z,95623.95
